Time;durP1;ratioP1;P1;durP2;ratioP2;P2;SDS_P1;SDS_P2;PMS_P1;PMS_P2;Temp;Humidity;BMP_temperature;BMP_pressure;BME280_temperature;BME280_humidity;BME280_pressure;Samples;Min_cycle;Max_cycle;Signal;HPM_P1;HPM_P2
2022/05/07 00:01:03;;;;;;;;;5.25;4.00;;;;;20.83;38.69;101971.34;5080052;28;45647;-47
2022/05/07 00:03:29;;;;;;;;;4.00;4.00;;;;;20.81;38.68;101967.03;5079581;28;51247;-53
2022/05/07 00:05:54;;;;;;;;;4.00;4.00;;;;;20.82;38.41;101968.75;5080046;27;45251;-48
2022/05/07 00:08:19;;;;;;;;;6.00;5.00;;;;;20.84;38.63;101969.56;5078665;28;45274;-52
2022/05/07 00:10:45;;;;;;;;;6.50;4.75;;;;;20.81;38.74;101962.63;5079840;28;45372;-57
2022/05/07 00:13:11;;;;;;;;;4.00;3.25;;;;;20.83;38.43;101965.19;5079395;27;46402;-49
2022/05/07 00:15:36;;;;;;;;;6.00;6.00;;;;;20.82;38.75;101960.84;5079276;28;45276;-55
2022/05/07 00:18:01;;;;;;;;;4.50;4.50;;;;;20.81;38.33;101957.38;5079695;28;45236;-57
2022/05/07 00:20:28;;;;;;;;;4.00;3.25;;;;;20.81;38.71;101957.38;5078535;28;45661;-54
2022/05/07 00:22:54;;;;;;;;;5.00;5.00;;;;;20.83;38.88;101955.53;5079728;27;45433;-56
2022/05/07 00:25:19;;;;;;;;;4.75;4.75;;;;;20.82;38.77;101956.44;5079400;27;45415;-57
2022/05/07 00:27:45;;;;;;;;;2.25;1.25;;;;;20.82;38.37;101961.72;5078188;28;45418;-57
2022/05/07 00:30:10;;;;;;;;;6.00;6.00;;;;;20.83;38.60;101959.94;5079548;27;45630;-57
2022/05/07 00:32:36;;;;;;;;;4.00;4.00;;;;;20.82;38.75;101959.09;5079523;27;45474;-56
2022/05/07 00:35:01;;;;;;;;;5.00;5.00;;;;;20.82;39.08;101958.22;5079122;28;45201;-56
2022/05/07 00:37:27;;;;;;;;;4.00;4.00;;;;;20.82;38.90;101953.81;5079475;27;45247;-56
2022/05/07 00:39:52;;;;;;;;;5.75;5.75;;;;;20.83;38.80;101959.94;5079785;27;45176;-57
2022/05/07 00:42:18;;;;;;;;;5.50;5.50;;;;;20.82;38.69;101959.09;5078418;27;46355;-56
2022/05/07 00:44:44;;;;;;;;;5.75;4.25;;;;;20.82;38.93;101951.19;5079002;28;45236;-52
2022/05/07 00:47:14;;;;;;;;;6.00;5.25;;;;;20.83;38.44;101949.38;5079197;27;45259;-55
2022/05/07 00:49:42;;;;;;;;;6.00;6.00;;;;;20.83;38.81;101946.75;5079445;27;45335;-50
2022/05/07 00:52:07;;;;;;;;;5.00;4.00;;;;;20.83;38.89;101945.00;5077681;28;48264;-50
2022/05/07 00:54:33;;;;;;;;;5.25;5.25;;;;;20.83;38.60;101937.09;5079023;28;45235;-49
2022/05/07 00:56:58;;;;;;;;;5.25;5.25;;;;;20.83;38.73;101944.13;5079111;28;45206;-47
2022/05/07 00:59:24;;;;;;;;;5.00;5.00;;;;;20.82;38.66;101939.75;5079475;27;45270;-57
2022/05/07 01:01:49;;;;;;;;;8.25;7.00;;;;;20.83;38.73;101936.22;5078712;28;46007;-56
2022/05/07 01:04:15;;;;;;;;;5.00;5.00;;;;;20.83;38.77;101938.84;5078763;27;45318;-54
2022/05/07 01:06:41;;;;;;;;;5.00;4.00;;;;;20.83;39.02;101941.47;5078750;27;45437;-56
2022/05/07 01:09:07;;;;;;;;;6.25;5.50;;;;;20.83;39.25;101937.09;5079006;27;45656;-55
2022/05/07 01:11:34;;;;;;;;;5.50;5.50;;;;;20.83;39.16;101939.72;5078516;27;46020;-56
2022/05/07 01:13:59;;;;;;;;;7.75;6.00;;;;;20.84;39.29;101940.56;5078477;27;45758;-55
2022/05/07 01:16:24;;;;;;;;;5.50;5.50;;;;;20.82;39.10;101938.00;5078975;28;45333;-56
2022/05/07 01:18:50;;;;;;;;;6.00;5.00;;;;;20.83;38.65;101934.44;5078728;28;45462;-58
2022/05/07 01:21:17;;;;;;;;;6.00;5.00;;;;;20.83;39.21;101944.13;5078386;27;45675;-57
2022/05/07 01:23:44;;;;;;;;;5.25;5.00;;;;;20.82;39.02;101943.28;5077169;28;45384;-57
2022/05/07 01:26:11;;;;;;;;;6.50;6.50;;;;;20.83;39.17;101944.13;5078429;27;45362;-55
2022/05/07 01:28:37;;;;;;;;;5.50;5.50;;;;;20.83;38.69;101939.72;5078807;27;45501;-57
2022/05/07 01:31:04;;;;;;;;;7.50;6.00;;;;;20.83;39.08;101941.47;5078202;27;45395;-52
2022/05/07 01:33:33;;;;;;;;;5.25;5.25;;;;;20.83;39.15;101936.22;5078363;27;45822;-49
2022/05/07 01:36:00;;;;;;;;;6.25;5.50;;;;;20.84;39.03;101937.94;5078709;28;45347;-56
2022/05/07 01:38:25;;;;;;;;;5.25;5.00;;;;;20.82;39.30;101943.28;5078767;27;45471;-56
2022/05/07 01:40:51;;;;;;;;;7.25;5.50;;;;;20.83;38.93;101939.72;5078012;27;45547;-56
2022/05/07 01:43:16;;;;;;;;;6.25;5.00;;;;;20.84;38.94;101940.56;5078057;28;46005;-54
2022/05/07 01:45:41;;;;;;;;;9.00;7.25;;;;;20.84;38.92;101935.28;5078172;28;45495;-56
2022/05/07 01:48:10;;;;;;;;;7.50;6.50;;;;;20.84;39.16;101930.03;5078421;28;45558;-56
2022/05/07 01:50:39;;;;;;;;;7.25;6.50;;;;;20.81;39.13;101928.38;5078057;27;47522;-57
2022/05/07 01:53:09;;;;;;;;;5.75;5.75;;;;;20.83;38.86;101936.22;5076961;28;45763;-54
2022/05/07 01:55:35;;;;;;;;;6.25;6.25;;;;;20.81;38.93;101932.78;5078086;27;45399;-56
2022/05/07 01:58:02;;;;;;;;;8.50;6.00;;;;;20.82;39.28;101927.47;5078228;27;45699;-45
2022/05/07 02:00:29;;;;;;;;;7.00;6.00;;;;;20.81;39.41;101924.88;5078082;27;47284;-50
2022/05/07 02:02:55;;;;;;;;;6.75;6.00;;;;;20.84;39.02;101930.03;5078039;27;45808;-55
2022/05/07 02:05:21;;;;;;;;;5.00;5.00;;;;;20.83;38.79;101925.66;5077601;27;45182;-51
2022/05/07 02:07:46;;;;;;;;;4.75;4.75;;;;;20.81;39.34;101914.31;5077975;28;45337;-51
2022/05/07 02:10:11;;;;;;;;;7.50;6.75;;;;;20.83;38.90;101923.91;5077542;28;46052;-51
2022/05/07 02:12:37;;;;;;;;;7.50;6.50;;;;;20.83;39.39;101921.28;5077568;28;48245;-51
2022/05/07 02:15:02;;;;;;;;;6.75;6.00;;;;;20.81;39.24;101924.88;5077594;28;45301;-51
2022/05/07 02:17:28;;;;;;;;;5.00;5.00;;;;;20.81;38.97;101924.88;5076892;28;45385;-51
2022/05/07 02:19:53;;;;;;;;;7.00;6.00;;;;;20.81;39.33;101915.19;5077466;28;46173;-52
2022/05/07 02:22:18;;;;;;;;;9.25;6.00;;;;;20.83;39.41;101923.03;5077527;27;45333;-45
2022/05/07 02:24:44;;;;;;;;;6.25;6.25;;;;;20.82;39.37;101916.06;5077593;28;45260;-54
2022/05/07 02:27:09;;;;;;;;;5.00;5.00;;;;;20.83;39.25;101918.63;5077709;27;45248;-52
2022/05/07 02:29:34;;;;;;;;;6.25;6.25;;;;;20.83;38.97;101918.63;5077502;27;46056;-52
2022/05/07 02:32:06;;;;;;;;;4.00;4.00;;;;;20.81;39.13;101915.19;5077765;28;45343;-54
2022/05/07 02:34:36;;;;;;;;;6.25;5.50;;;;;20.83;38.92;101923.03;5077812;28;45436;-57
2022/05/07 02:37:03;;;;;;;;;5.25;4.75;;;;;20.83;39.30;101921.28;5077857;27;45220;-57
2022/05/07 02:39:28;;;;;;;;;7.50;6.00;;;;;20.83;39.49;101917.75;5077526;27;45472;-58
2022/05/07 02:44:38;;;;;;;;;10.00;8.00;;;;;20.81;39.24;101917.84;5077316;28;45323;-57
2022/05/07 02:47:04;;;;;;;;;5.75;5.75;;;;;20.80;39.50;101917.88;5077422;27;45403;-51
2022/05/07 02:49:30;;;;;;;;;6.50;6.00;;;;;20.82;39.31;101927.47;5077267;27;45450;-56
2022/05/07 02:51:56;;;;;;;;;5.00;5.00;;;;;20.82;38.90;101923.94;5077077;27;45746;-56
2022/05/07 02:54:21;;;;;;;;;6.25;5.50;;;;;20.83;39.41;101921.28;5077302;28;45495;-57
2022/05/07 02:56:46;;;;;;;;;7.00;5.50;;;;;20.83;39.00;101915.13;5077357;28;45566;-56
2022/05/07 02:59:11;;;;;;;;;6.50;6.50;;;;;20.82;39.19;101926.59;5076811;28;48802;-56
2022/05/07 03:01:37;;;;;;;;;7.00;6.25;;;;;20.83;38.99;101925.66;5076934;28;45799;-56
2022/05/07 03:04:02;;;;;;;;;8.75;8.75;;;;;20.82;39.47;101918.69;5077109;27;45358;-56
2022/05/07 03:06:27;;;;;;;;;8.75;7.50;;;;;20.82;39.16;101914.28;5076475;27;45297;-57
2022/05/07 03:08:53;;;;;;;;;6.75;5.25;;;;;20.83;39.08;101918.63;5076661;28;45409;-54
2022/05/07 03:11:18;;;;;;;;;9.50;6.00;;;;;20.83;39.16;101915.13;5076674;28;45266;-56
2022/05/07 03:13:44;;;;;;;;;7.00;7.00;;;;;20.84;39.53;101914.22;5076803;28;45330;-55
2022/05/07 03:16:09;;;;;;;;;5.75;5.75;;;;;20.83;39.23;101913.38;5076935;27;45259;-57
2022/05/07 03:18:35;;;;;;;;;7.75;6.00;;;;;20.82;39.34;101910.78;5076626;28;45988;-52
2022/05/07 03:21:01;;;;;;;;;5.00;5.00;;;;;20.82;39.10;101909.03;5075622;28;46023;-57
2022/05/07 03:23:26;;;;;;;;;7.25;6.50;;;;;20.82;39.01;101914.28;5076907;27;45382;-55
2022/05/07 03:25:52;;;;;;;;;6.25;6.25;;;;;20.81;39.13;101909.06;5076948;27;45483;-57
2022/05/07 03:28:18;;;;;;;;;6.75;6.75;;;;;20.82;39.64;101911.66;5092234;27;47403;-57
2022/05/07 03:30:43;;;;;;;;;6.50;6.00;;;;;20.83;39.06;101915.13;5076723;27;45205;-57
2022/05/07 03:33:08;;;;;;;;;5.00;5.00;;;;;20.83;39.29;101917.75;5076628;28;45199;-57
2022/05/07 03:35:34;;;;;;;;;7.00;5.75;;;;;20.82;39.15;101916.06;5075812;28;45644;-57
2022/05/07 03:37:59;;;;;;;;;8.50;4.50;;;;;20.79;39.28;101910.88;5076388;28;46649;-57
2022/05/07 03:40:25;;;;;;;;;6.00;6.00;;;;;20.83;39.06;101923.03;5076516;28;45715;-57
2022/05/07 03:42:51;;;;;;;;;9.00;7.00;;;;;20.81;39.34;101911.69;5076524;27;45411;-55
2022/05/07 03:45:16;;;;;;;;;6.00;6.00;;;;;20.81;39.38;101903.78;5076533;28;45446;-57
2022/05/07 03:47:41;;;;;;;;;8.25;6.75;;;;;20.81;39.56;101903.78;5075144;28;45437;-54
2022/05/07 03:50:07;;;;;;;;;9.00;8.00;;;;;20.83;39.63;101904.59;5076334;27;45373;-52
2022/05/07 03:55:17;;;;;;;;;8.50;8.00;;;;;20.81;39.21;101904.66;5076814;28;45346;-49
2022/05/07 03:57:42;;;;;;;;;6.50;5.25;;;;;20.81;39.53;101903.78;5075092;28;47579;-53
2022/05/07 04:00:08;;;;;;;;;9.25;8.00;;;;;20.81;39.71;101903.78;5076164;28;45318;-55
2022/05/07 04:02:35;;;;;;;;;6.00;6.00;;;;;20.81;39.24;101898.53;5076546;28;45386;-56
2022/05/07 04:05:03;;;;;;;;;6.25;6.00;;;;;20.81;39.71;101898.53;5076437;27;45391;-57
2022/05/07 04:07:28;;;;;;;;;7.50;6.75;;;;;20.82;39.30;101898.47;5076069;27;45287;-57
2022/05/07 04:09:56;;;;;;;;;8.33;6.33;;;;;20.81;39.29;101894.13;5075704;28;51715;-56
2022/05/07 04:12:22;;;;;;;;;6.25;6.25;;;;;20.81;39.76;101903.78;5076352;27;45496;-57
2022/05/07 04:14:48;;;;;;;;;6.00;5.00;;;;;20.81;39.49;101903.78;5075991;27;46000;-57
2022/05/07 04:17:13;;;;;;;;;7.50;6.25;;;;;20.81;39.58;101898.53;5075852;27;45396;-54
2022/05/07 04:19:39;;;;;;;;;5.75;5.75;;;;;20.80;39.81;101894.16;5079212;28;45381;-55
2022/05/07 04:22:05;;;;;;;;;6.75;6.75;;;;;20.80;39.95;101889.78;5079836;27;45418;-57
2022/05/07 04:24:33;;;;;;;;;7.50;7.50;;;;;20.80;39.29;101900.31;5079659;28;45639;-59
2022/05/07 04:26:58;;;;;;;;;6.75;6.75;;;;;20.80;39.37;101896.81;5077984;28;46482;-54
2022/05/07 04:29:23;;;;;;;;;5.50;5.50;;;;;20.80;39.28;101892.41;5079380;27;45153;-57
2022/05/07 04:31:49;;;;;;;;;7.50;6.00;;;;;20.79;39.38;101897.72;5079381;27;45408;-57
2022/05/07 04:34:14;;;;;;;;;8.50;7.50;;;;;20.80;39.62;101897.69;5079338;28;45612;-57
2022/05/07 04:36:39;;;;;;;;;6.50;6.50;;;;;20.81;39.43;101901.16;5078733;27;46064;-56
2022/05/07 04:39:05;;;;;;;;;5.75;5.75;;;;;20.81;39.75;101901.16;5079591;28;45196;-57
2022/05/07 04:41:30;;;;;;;;;6.75;6.00;;;;;20.81;39.56;101911.69;5078026;28;45300;-57
2022/05/07 04:43:55;;;;;;;;;7.00;7.00;;;;;20.80;39.70;101902.06;5078131;28;45227;-56
2022/05/07 04:46:21;;;;;;;;;8.00;8.00;;;;;20.81;39.82;101903.78;5078839;28;45148;-55
2022/05/07 04:48:46;;;;;;;;;5.75;5.75;;;;;20.80;40.01;101905.56;5077662;28;46233;-57
2022/05/07 04:51:12;;;;;;;;;7.00;7.00;;;;;20.80;39.91;101907.34;5079073;27;45439;-57
2022/05/07 04:53:37;;;;;;;;;6.75;5.50;;;;;20.80;40.29;101909.97;5079561;27;45434;-58
2022/05/07 04:56:03;;;;;;;;;8.75;8.75;;;;;20.79;39.89;101909.13;5078669;27;46234;-59
2022/05/07 04:58:29;;;;;;;;;10.00;9.50;;;;;20.80;39.81;101904.69;5078863;28;45440;-58
2022/05/07 05:00:54;;;;;;;;;12.00;9.75;;;;;20.79;40.05;101897.72;5079112;27;45845;-56
2022/05/07 05:03:19;;;;;;;;;8.25;8.25;;;;;20.78;40.12;101902.16;5079057;28;45551;-57
2022/05/07 05:05:45;;;;;;;;;9.75;9.75;;;;;20.78;40.36;101903.94;5078613;28;45469;-57
2022/05/07 05:08:10;;;;;;;;;14.25;13.00;;;;;20.77;40.69;101896.94;5078651;27;45435;-52
2022/05/07 05:10:35;;;;;;;;;15.25;12.00;;;;;20.76;40.91;101895.22;5079083;28;45542;-58
2022/05/07 05:13:01;;;;;;;;;11.00;9.25;;;;;20.74;41.24;101899.66;5077540;28;45553;-58
2022/05/07 05:15:26;;;;;;;;;13.50;13.00;;;;;20.68;41.15;101896.34;5078212;28;46462;-57
2022/05/07 05:17:52;;;;;;;;;15.00;11.25;;;;;20.69;40.76;101895.41;5078579;27;45324;-53
2022/05/07 05:20:18;;;;;;;;;9.00;9.00;;;;;20.68;41.15;101890.22;5078571;27;45310;-55
2022/05/07 05:22:49;;;;;;;;;15.00;11.75;;;;;20.67;41.10;101902.50;5078676;27;45336;-43
2022/05/07 05:25:16;;;;;;;;;13.25;11.00;;;;;20.67;41.30;101902.50;5078268;28;45473;-52
2022/05/07 05:27:41;;;;;;;;;11.50;10.00;;;;;20.66;41.32;101889.41;5078327;27;45825;-52
2022/05/07 05:30:08;;;;;;;;;12.50;9.00;;;;;20.67;40.70;101894.63;5078382;27;45271;-50
2022/05/07 05:32:33;;;;;;;;;10.25;9.50;;;;;20.67;40.73;101886.72;5078632;27;45582;-51
2022/05/07 05:34:58;;;;;;;;;8.25;7.50;;;;;20.67;41.16;101894.63;5078187;27;46243;-57
2022/05/07 05:37:23;;;;;;;;;11.00;11.00;;;;;20.67;40.73;101889.34;5078221;27;45206;-55
2022/05/07 05:39:49;;;;;;;;;11.50;9.75;;;;;20.68;40.92;101893.69;5078292;27;45453;-58
2022/05/07 05:42:15;;;;;;;;;8.75;8.75;;;;;20.69;40.56;101900.69;5094290;27;45325;-52
2022/05/07 05:44:41;;;;;;;;;10.50;9.50;;;;;20.69;40.93;101898.06;5078289;27;46196;-56
2022/05/07 05:47:07;;;;;;;;;14.00;11.00;;;;;20.68;40.89;101906.88;5078202;27;45346;-58
2022/05/07 05:49:36;;;;;;;;;10.75;8.75;;;;;20.70;40.55;101901.56;5078222;27;45325;-55
2022/05/07 05:52:06;;;;;;;;;11.00;9.00;;;;;20.68;40.69;101900.75;5078453;27;45238;-56
2022/05/07 05:54:31;;;;;;;;;9.25;7.25;;;;;20.70;40.54;101896.28;5077952;27;45562;-57
2022/05/07 05:56:58;;;;;;;;;14.25;12.00;;;;;20.70;40.85;101902.41;5077855;27;45334;-55
2022/05/07 05:59:24;;;;;;;;;9.00;7.00;;;;;20.70;40.82;101906.81;5078109;27;45398;-58
2022/05/07 06:01:50;;;;;;;;;12.00;10.25;;;;;20.69;40.55;101905.13;5078167;27;45313;-57
2022/05/07 06:04:15;;;;;;;;;11.00;10.25;;;;;20.70;40.88;101910.31;5077717;28;45362;-55
2022/05/07 06:06:41;;;;;;;;;9.00;9.00;;;;;20.70;40.55;101906.81;5077928;27;45339;-57
2022/05/07 06:09:06;;;;;;;;;10.75;9.00;;;;;20.71;40.96;101903.28;5077940;27;45278;-58
2022/05/07 06:11:32;;;;;;;;;11.25;10.00;;;;;20.70;40.58;101897.13;5076287;28;45719;-56
2022/05/07 06:13:57;;;;;;;;;9.75;8.00;;;;;20.72;41.04;101898.84;5077500;28;45353;-59
2022/05/07 06:16:23;;;;;;;;;10.25;10.25;;;;;20.72;41.06;101897.09;5077586;27;45249;-56
2022/05/07 06:18:49;;;;;;;;;12.00;9.25;;;;;20.69;40.56;101894.56;5077740;27;45346;-59
2022/05/07 06:21:15;;;;;;;;;11.25;11.00;;;;;20.72;41.05;101901.50;5077739;27;45212;-58
2022/05/07 06:23:40;;;;;;;;;14.00;12.00;;;;;20.70;40.90;101902.41;5077719;27;46120;-58
2022/05/07 06:28:49;;;;;;;;;10.75;8.00;;;;;20.72;41.05;101912.03;5077361;28;45325;-58
2022/05/07 06:31:17;;;;;;;;;12.50;10.00;;;;;20.72;40.80;101914.66;5077408;28;45390;-55
2022/05/07 06:33:43;;;;;;;;;14.25;12.00;;;;;20.69;40.37;101913.84;5077433;28;46180;-53
2022/05/07 06:36:08;;;;;;;;;10.25;9.50;;;;;20.73;40.84;101919.00;5076187;28;45366;-56
2022/05/07 06:38:34;;;;;;;;;10.50;9.50;;;;;20.73;40.78;101932.19;5077429;28;45379;-57
2022/05/07 06:41:04;;;;;;;;;9.75;9.75;;;;;20.73;40.50;101933.03;5075353;28;45380;-58
2022/05/07 06:43:30;;;;;;;;;12.50;10.75;;;;;20.75;40.68;101935.66;5075890;28;45358;-58
2022/05/07 06:45:57;;;;;;;;;9.50;6.75;;;;;20.74;40.64;101937.41;5076977;27;45231;-58
2022/05/07 06:48:23;;;;;;;;;14.00;9.00;;;;;20.74;40.70;101939.19;5077272;27;45421;-59
2022/05/07 06:50:49;;;;;;;;;8.75;8.00;;;;;20.73;40.58;101933.03;5077261;27;45474;-58
2022/05/07 06:53:14;;;;;;;;;11.75;9.50;;;;;20.76;40.76;101942.66;5077071;28;45934;-56
2022/05/07 06:55:55;;;;;;;;;10.00;9.75;;;;;20.74;40.72;101944.44;5077182;28;45320;-57
2022/05/07 06:58:27;;;;;;;;;11.00;10.00;;;;;20.77;40.80;101947.84;5077159;28;45344;-57
2022/05/07 07:00:52;;;;;;;;;10.75;10.75;;;;;20.77;40.99;101954.91;5077222;27;45448;-57
2022/05/07 07:03:18;;;;;;;;;14.50;11.75;;;;;20.77;41.16;101952.28;5076723;28;46132;-58
2022/05/07 07:05:44;;;;;;;;;8.75;8.75;;;;;20.77;41.24;101952.28;5076908;27;45331;-58
2022/05/07 07:08:11;;;;;;;;;12.25;10.00;;;;;20.76;40.99;101954.03;5077116;27;45742;-58
2022/05/07 07:10:37;;;;;;;;;11.00;10.00;;;;;20.77;40.75;101950.47;5077063;28;45279;-58
2022/05/07 07:13:02;;;;;;;;;11.75;9.50;;;;;20.77;41.16;101949.63;5076537;28;46148;-58
2022/05/07 07:15:27;;;;;;;;;10.00;10.00;;;;;20.78;41.04;101951.34;5075445;27;46125;-58
2022/05/07 07:17:53;;;;;;;;;14.00;11.25;;;;;20.78;41.13;101959.25;5076812;28;45330;-58
2022/05/07 07:20:18;;;;;;;;;12.25;9.00;;;;;20.79;41.15;101948.66;5076795;28;45417;-56
2022/05/07 07:22:46;;;;;;;;;11.75;10.75;;;;;20.76;41.27;101945.28;5076758;28;50128;-57
2022/05/07 07:25:12;;;;;;;;;14.25;11.50;;;;;20.78;41.11;101946.09;5076920;28;45935;-58
2022/05/07 07:27:38;;;;;;;;;11.75;11.00;;;;;20.79;40.81;101947.78;5076768;27;45212;-57
2022/05/07 07:30:03;;;;;;;;;12.25;11.00;;;;;20.79;41.20;101953.03;5075462;28;45641;-57
2022/05/07 07:32:29;;;;;;;;;10.50;9.00;;;;;20.76;41.06;101943.50;5076367;27;45265;-56
2022/05/07 07:34:54;;;;;;;;;11.50;10.25;;;;;20.78;41.03;101956.63;5076369;28;45166;-58
2022/05/07 07:37:20;;;;;;;;;15.00;11.50;;;;;20.80;40.74;101957.41;5076682;27;45298;-57
2022/05/07 07:39:45;;;;;;;;;12.00;9.00;;;;;20.80;41.02;101954.75;5076991;27;45578;-58
2022/05/07 07:42:11;;;;;;;;;9.00;9.00;;;;;20.80;40.78;101960.03;5074927;28;46990;-58
2022/05/07 07:44:36;;;;;;;;;10.00;10.00;;;;;20.80;40.89;101954.75;5076421;27;45518;-58
2022/05/07 07:49:46;;;;;;;;;12.25;11.25;;;;;20.78;41.26;101952.19;5076882;28;45394;-58
2022/05/07 07:52:12;;;;;;;;;14.50;11.25;;;;;20.80;40.88;101949.50;5077082;27;53571;-58
2022/05/07 07:54:38;;;;;;;;;9.50;9.00;;;;;20.79;41.36;101953.91;5079784;28;45318;-58
2022/05/07 07:57:04;;;;;;;;;11.00;9.50;;;;;20.80;41.28;101944.22;5079921;27;45349;-56
2022/05/07 07:59:29;;;;;;;;;14.25;11.00;;;;;20.81;40.89;101948.59;5080060;28;45521;-57
2022/05/07 08:01:56;;;;;;;;;11.75;10.00;;;;;20.81;40.77;101952.09;5079477;27;45876;-58
2022/05/07 08:04:22;;;;;;;;;9.75;9.75;;;;;20.80;41.32;101954.75;5079599;27;45772;-58
2022/05/07 08:11:40;;;;;;;;;10.75;10.25;;;;;20.81;41.09;101951.22;5080050;27;45401;-46
2022/05/07 08:12:17;;;;;;;;;11.50;11.25;;;;;20.81;41.38;101945.94;5079895;28;45775;-55
2022/05/07 08:14:42;;;;;;;;;11.00;11.00;;;;;20.82;41.50;101945.03;5079536;27;45294;-58
2022/05/07 08:17:08;;;;;;;;;11.00;9.50;;;;;20.82;41.35;101948.53;5078531;28;45247;-56
2022/05/07 08:19:34;;;;;;;;;10.00;9.00;;;;;20.82;40.92;101953.81;5079896;27;45446;-57
2022/05/07 08:22:00;;;;;;;;;11.50;9.50;;;;;20.81;41.37;101938.03;5079349;27;46339;-57
2022/05/07 08:24:25;;;;;;;;;9.50;9.50;;;;;20.84;40.98;101945.84;5078076;28;45401;-55
2022/05/07 08:26:51;;;;;;;;;14.75;11.25;;;;;20.84;41.59;101943.19;5079522;28;45268;-56
2022/05/07 08:29:16;;;;;;;;;13.00;10.25;;;;;20.85;40.92;101942.28;5079900;27;45526;-58
2022/05/07 08:31:41;;;;;;;;;11.50;8.50;;;;;20.87;41.43;101940.47;5061087;28;47001;-57
2022/05/07 08:34:07;;;;;;;;;11.50;10.25;;;;;20.88;41.53;101949.19;5079318;27;45315;-57
2022/05/07 08:36:32;;;;;;;;;10.25;10.00;;;;;20.86;41.26;101941.38;5079246;28;45366;-57
2022/05/07 08:38:57;;;;;;;;;12.00;9.00;;;;;20.89;40.99;101943.03;5079276;28;45529;-58
2022/05/07 08:41:23;;;;;;;;;8.50;8.50;;;;;20.88;41.60;101944.81;5079152;28;46176;-57
2022/05/07 08:43:50;;;;;;;;;10.75;9.25;;;;;20.90;41.63;101950.84;5079258;27;45409;-58
2022/05/07 08:46:19;;;;;;;;;10.00;9.00;;;;;20.88;41.53;101947.44;5079580;28;45806;-59
2022/05/07 08:48:51;;;;;;;;;10.75;8.50;;;;;20.89;41.52;101943.03;5079434;27;45624;-56
2022/05/07 08:51:19;;;;;;;;;13.00;11.00;;;;;20.87;41.86;101940.47;5077918;28;46341;-59
2022/05/07 08:53:49;;;;;;;;;11.75;9.00;;;;;20.88;41.56;101938.66;5078935;27;45333;-57
2022/05/07 08:56:15;;;;;;;;;16.00;12.50;;;;;20.88;42.12;101938.66;5079002;27;45432;-56
2022/05/07 08:58:51;;;;;;;;;13.00;10.75;;;;;20.87;42.12;101945.72;5078016;28;45476;-58
2022/05/07 09:01:17;;;;;;;;;8.75;8.75;;;;;20.86;41.50;101944.00;5079081;27;45526;-58
2022/05/07 09:03:45;;;;;;;;;10.75;10.00;;;;;20.87;41.86;101935.19;5078114;27;45231;-58
2022/05/07 09:06:26;;;;;;;;;14.25;11.75;;;;;20.87;41.64;101939.56;5078828;27;45365;-58
2022/05/07 09:08:53;;;;;;;;;9.75;8.50;;;;;20.88;41.91;101938.66;5079355;27;45441;-59
2022/05/07 09:11:19;;;;;;;;;9.00;9.00;;;;;20.90;41.85;101942.94;5078501;27;45352;-53
2022/05/07 09:13:46;;;;;;;;;5.75;5.75;;;;;20.89;42.07;101933.31;5078437;27;45275;-57
2022/05/07 09:16:12;;;;;;;;;9.25;9.25;;;;;20.92;42.01;101943.75;5078821;27;45307;-59
2022/05/07 09:18:37;;;;;;;;;14.00;10.50;;;;;20.93;42.02;101942.84;5078864;27;45617;-55
2022/05/07 09:21:16;;;;;;;;;13.75;11.50;;;;;20.92;41.82;101941.13;5078390;27;45432;-58
2022/05/07 09:23:44;;;;;;;;;11.25;10.75;;;;;20.92;41.92;101933.22;5078434;27;45356;-54
2022/05/07 09:26:09;;;;;;;;;10.00;8.25;;;;;20.93;41.97;101934.09;5078554;27;45464;-54
2022/05/07 09:28:38;;;;;;;;;12.75;12.00;;;;;20.96;41.89;101934.81;5078791;28;45394;-57
2022/05/07 09:31:03;;;;;;;;;10.25;9.50;;;;;20.95;42.28;101924.31;5078266;28;47021;-53
2022/05/07 09:33:33;;;;;;;;;13.00;9.25;;;;;20.96;42.13;101926.91;5078375;28;45350;-53
2022/05/07 09:36:11;;;;;;;;;9.50;9.50;;;;;20.99;42.30;101924.16;5078402;27;45261;-56
2022/05/07 09:38:37;;;;;;;;;8.75;8.50;;;;;20.99;42.25;101924.16;5078492;28;45264;-56
2022/05/07 09:41:03;;;;;;;;;13.00;11.50;;;;;21.01;41.99;101926.72;5078105;27;46525;-54
2022/05/07 09:43:30;;;;;;;;;9.25;8.75;;;;;21.01;42.25;101921.44;5078218;27;45369;-55
2022/05/07 09:45:56;;;;;;;;;12.50;10.50;;;;;21.02;42.02;101925.81;5078143;27;45275;-54
2022/05/07 09:48:22;;;;;;;;;11.00;10.25;;;;;21.01;42.07;101930.19;5078710;27;45486;-55
2022/05/07 09:50:47;;;;;;;;;10.75;10.75;;;;;21.01;42.33;101924.94;5077955;27;46160;-52
2022/05/07 09:58:45;;;;;;;;;8.50;8.50;;;;;21.05;42.40;101915.16;5078546;28;45403;-50
2022/05/07 10:01:31;;;;;;;;;7.25;6.50;;;;;21.04;42.58;101916.06;5077829;27;46238;-57
2022/05/07 10:04:04;;;;;;;;;10.50;9.00;;;;;21.06;42.24;101910.72;5078052;27;46010;-52
2022/05/07 10:06:42;;;;;;;;;12.50;11.00;;;;;21.05;42.47;101912.50;5077569;28;45492;-52
2022/05/07 10:09:31;;;;;;;;;12.25;12.00;;;;;21.06;42.38;101908.09;5077982;28;45329;-52
2022/05/07 10:11:57;;;;;;;;;9.25;9.25;;;;;21.07;42.27;101915.91;5077583;27;46269;-52
2022/05/07 10:14:28;;;;;;;;;14.00;11.75;;;;;21.08;42.15;101922.91;5077785;27;45776;-53
2022/05/07 10:17:21;;;;;;;;;11.75;10.00;;;;;21.07;42.56;101913.28;5076866;27;45328;-51
2022/05/07 10:19:49;;;;;;;;;13.00;11.00;;;;;21.08;42.15;101917.63;5074971;27;46508;-51
2022/05/07 10:22:25;;;;;;;;;9.00;8.00;;;;;21.10;42.33;101909.69;5077546;27;46090;-51
2022/05/07 10:25:11;;;;;;;;;8.00;6.75;;;;;21.10;42.26;101907.06;5077808;28;45389;-51
2022/05/07 10:27:37;;;;;;;;;10.25;9.50;;;;;21.11;42.30;101911.41;5077571;27;45339;-55
2022/05/07 10:30:04;;;;;;;;;14.50;11.00;;;;;21.10;42.44;101912.31;5077570;27;45620;-52
2022/05/07 10:32:29;;;;;;;;;10.75;10.75;;;;;21.10;42.28;101912.31;5077329;27;47019;-52
2022/05/07 10:34:56;;;;;;;;;10.50;9.25;;;;;21.13;42.77;101906.91;5077432;28;53251;-50
2022/05/07 10:37:22;;;;;;;;;10.50;8.50;;;;;21.12;42.19;101907.81;5077815;28;45367;-51
2022/05/07 10:39:53;;;;;;;;;9.50;9.50;;;;;21.13;42.44;101910.41;5077584;28;45975;-52
2022/05/07 10:42:21;;;;;;;;;11.00;10.50;;;;;21.13;42.72;101899.88;5077146;27;46208;-49
2022/05/07 10:44:46;;;;;;;;;10.50;9.00;;;;;21.14;42.71;101906.00;5077255;27;45266;-51
2022/05/07 10:47:14;;;;;;;;;10.25;7.50;;;;;21.15;42.17;101907.69;5077239;28;45372;-53
2022/05/07 10:50:08;;;;;;;;;11.00;9.50;;;;;21.14;42.82;101896.31;5077316;27;45467;-54
2022/05/07 10:52:34;;;;;;;;;7.25;7.25;;;;;21.16;42.74;101912.94;5076951;27;46602;-52
2022/05/07 10:55:16;;;;;;;;;13.25;9.00;;;;;21.17;42.73;101906.72;5076918;27;45377;-53
2022/05/07 10:57:46;;;;;;;;;9.25;9.00;;;;;21.15;42.65;101905.94;5077116;27;45658;-51
2022/05/07 11:00:18;;;;;;;;;9.50;8.75;;;;;21.16;42.21;101901.50;5077255;27;45253;-53
2022/05/07 11:02:45;;;;;;;;;11.50;9.75;;;;;21.16;42.70;101896.25;5076953;27;45393;-51
2022/05/07 11:05:11;;;;;;;;;8.00;8.00;;;;;21.16;42.51;101896.25;5076974;27;45906;-53
2022/05/07 11:07:38;;;;;;;;;10.75;10.75;;;;;21.17;42.96;101892.69;5077011;27;45397;-57
2022/05/07 11:10:04;;;;;;;;;9.00;9.00;;;;;21.16;42.76;101894.47;5077158;27;45369;-55
2022/05/07 11:12:30;;;;;;;;;12.00;7.75;;;;;21.20;42.65;101889.06;5075400;28;46354;-54
2022/05/07 11:14:56;;;;;;;;;9.00;7.25;;;;;21.20;42.59;101894.34;5076700;28;45430;-53
2022/05/07 11:17:32;;;;;;;;;9.75;9.75;;;;;21.17;42.56;101885.63;5076969;27;45247;-53
2022/05/07 11:19:58;;;;;;;;;11.75;10.00;;;;;21.20;42.48;101887.28;5077216;27;45357;-53
2022/05/07 11:22:29;;;;;;;;;10.25;9.00;;;;;21.21;42.77;101888.13;5076977;27;45349;-53
2022/05/07 11:24:56;;;;;;;;;10.75;7.75;;;;;21.22;42.67;101887.22;5076774;27;45335;-45
2022/05/07 11:27:24;;;;;;;;;9.00;9.00;;;;;21.23;42.87;101879.22;5076199;27;45479;-54
2022/05/07 11:29:50;;;;;;;;;10.50;9.25;;;;;21.23;42.50;101884.50;5076988;27;45568;-52
2022/05/07 11:32:15;;;;;;;;;11.00;11.00;;;;;21.21;42.67;101875.84;5076160;27;46077;-55
2022/05/07 11:34:41;;;;;;;;;9.75;9.25;;;;;21.23;42.79;101888.94;5076393;27;45338;-54
2022/05/07 11:37:11;;;;;;;;;8.00;7.50;;;;;21.23;42.80;101884.50;5076760;27;45295;-55